createdAt,value
2023-08-23T00:00:07.140Z,60.29
2023-08-23T00:02:34.137Z,60.73
2023-08-23T00:05:00.903Z,60.99
2023-08-23T00:07:27.475Z,60.83
2023-08-23T00:09:54.227Z,61.36
2023-08-23T00:12:21.050Z,61.03
2023-08-23T00:14:47.600Z,61.13
2023-08-23T00:17:14.151Z,61.44
2023-08-23T00:19:40.712Z,61.71
2023-08-23T00:22:07.345Z,61.85
2023-08-23T00:24:33.885Z,61.95
2023-08-23T00:27:00.593Z,62.39
2023-08-23T00:29:27.191Z,62.08
2023-08-23T00:31:53.767Z,62.32
2023-08-23T00:34:20.357Z,62.58
2023-08-23T00:36:47.888Z,62.91
2023-08-23T00:39:14.545Z,62.51
2023-08-23T00:41:41.322Z,62.58
2023-08-23T00:44:08.067Z,62.74
2023-08-23T00:46:35.190Z,63.45
2023-08-23T00:49:02.053Z,63.07
2023-08-23T00:51:28.642Z,63.01
2023-08-23T00:53:55.241Z,63.54
2023-08-23T00:56:21.828Z,62.95
2023-08-23T00:58:48.574Z,63.43
2023-08-23T01:01:15.234Z,63.19
2023-08-23T01:03:42.065Z,63.11
2023-08-23T01:06:08.823Z,63.30
2023-08-23T01:08:41.203Z,63.81
2023-08-23T01:11:34.496Z,63.50
2023-08-23T01:14:05.010Z,63.72
2023-08-23T01:16:33.707Z,63.81
2023-08-23T01:19:04.542Z,63.96
2023-08-23T01:21:37.591Z,64.27
2023-08-23T01:24:09.869Z,64.35
2023-08-23T01:26:39.691Z,64.32
2023-08-23T01:29:06.402Z,64.93
2023-08-23T01:31:39.282Z,64.92
2023-08-23T01:34:16.721Z,64.79
2023-08-23T01:36:44.968Z,64.43
2023-08-23T01:39:12.228Z,64.66
2023-08-23T01:41:40.010Z,65.06
2023-08-23T01:44:06.792Z,65.26
2023-08-23T01:46:35.364Z,65.16
2023-08-23T01:49:02.741Z,65.44
2023-08-23T01:51:29.319Z,65.66
2023-08-23T01:53:55.928Z,65.51
2023-08-23T01:56:22.470Z,65.94
2023-08-23T01:58:49.060Z,65.78
2023-08-23T02:01:15.725Z,65.87
2023-08-23T02:03:42.467Z,65.92
2023-08-23T02:06:09.145Z,66.24
2023-08-23T02:08:36.909Z,66.11
2023-08-23T02:11:03.501Z,66.54
2023-08-23T02:13:30.066Z,66.57
2023-08-23T02:15:56.814Z,66.51
2023-08-23T02:18:23.540Z,66.71
2023-08-23T02:21:00.148Z,66.50
2023-08-23T02:23:27.180Z,66.70
2023-08-23T02:25:53.818Z,67.15
2023-08-23T02:28:20.537Z,67.45
2023-08-23T02:30:47.238Z,67.61
2023-08-23T02:33:13.984Z,67.76
2023-08-23T02:35:42.628Z,67.99
2023-08-23T02:38:09.828Z,67.75
2023-08-23T02:40:36.582Z,67.47
2023-08-23T02:43:03.145Z,67.52
2023-08-23T02:45:29.665Z,67.87
2023-08-23T02:47:56.194Z,67.92
2023-08-23T02:50:22.831Z,67.88
2023-08-23T02:52:49.402Z,68.05
2023-08-23T02:55:15.966Z,67.71
2023-08-23T02:57:42.572Z,68.40
2023-08-23T03:00:09.589Z,68.28
2023-08-23T03:02:36.235Z,68.73
2023-08-23T03:05:02.885Z,68.44
2023-08-23T03:07:29.449Z,68.69
2023-08-23T03:09:55.984Z,68.56
2023-08-23T03:12:22.597Z,68.67
2023-08-23T03:14:49.163Z,68.70
2023-08-23T03:17:15.732Z,68.86
2023-08-23T03:19:42.346Z,68.61
2023-08-23T03:22:09.230Z,68.80
2023-08-23T03:24:35.923Z,68.84
2023-08-23T03:27:02.483Z,68.67
2023-08-23T03:29:29.032Z,68.98
2023-08-23T03:31:55.610Z,68.96
2023-08-23T03:34:22.132Z,69.43
2023-08-23T03:36:49.939Z,69.51
2023-08-23T03:39:16.592Z,69.52
2023-08-23T03:41:43.105Z,69.74
2023-08-23T03:44:09.693Z,69.50
2023-08-23T03:46:36.298Z,69.64
2023-08-23T03:49:02.881Z,69.89
2023-08-23T03:51:29.435Z,69.99
2023-08-23T03:53:56.001Z,70.09
2023-08-23T03:56:22.552Z,70.16
2023-08-23T03:58:50.483Z,70.19
2023-08-23T04:01:17.091Z,70.29
2023-08-23T04:03:43.835Z,70.49
2023-08-23T04:06:10.522Z,70.30
2023-08-23T04:08:37.046Z,70.48
2023-08-23T04:11:03.626Z,70.46
2023-08-23T04:13:30.645Z,70.54
2023-08-23T04:15:57.185Z,70.39
2023-08-23T04:18:23.719Z,70.51
2023-08-23T04:21:00.274Z,70.97
2023-08-23T04:23:27.273Z,70.79
2023-08-23T04:25:53.911Z,70.99
2023-08-23T04:28:20.650Z,71.15
2023-08-23T04:30:47.181Z,70.83
2023-08-23T04:33:14.153Z,71.08
2023-08-23T04:35:40.828Z,71.23
2023-08-23T04:38:11.218Z,71.17
2023-08-23T04:40:38.029Z,70.90
2023-08-23T04:43:04.810Z,70.93
2023-08-23T04:45:31.343Z,70.96
2023-08-23T04:47:58.125Z,71.01
2023-08-23T04:50:24.741Z,71.19
2023-08-23T04:52:51.321Z,71.07
2023-08-23T04:55:18.070Z,72.72
2023-08-23T04:57:44.625Z,69.53
2023-08-23T05:00:12.788Z,66.92
2023-08-23T05:02:39.473Z,66.09
2023-08-23T05:05:07.365Z,64.24
2023-08-23T05:07:37.185Z,62.24
2023-08-23T05:10:05.670Z,62.13
2023-08-23T05:12:33.449Z,62.04
2023-08-23T05:15:00.053Z,61.33
2023-08-23T05:17:26.708Z,60.31
2023-08-23T05:19:53.234Z,60.55
2023-08-23T05:22:19.821Z,60.46
2023-08-23T05:24:46.401Z,59.97
2023-08-23T05:27:13.227Z,60.23
2023-08-23T05:29:39.828Z,59.82
2023-08-23T05:32:06.519Z,59.08
2023-08-23T05:34:33.103Z,60.02
2023-08-23T05:36:59.832Z,59.21
2023-08-23T05:39:26.476Z,58.86
2023-08-23T05:41:53.055Z,58.99
2023-08-23T05:44:19.649Z,59.01
2023-08-23T05:46:46.208Z,59.03
2023-08-23T05:49:12.871Z,58.85
2023-08-23T05:51:39.844Z,59.45
2023-08-23T05:54:07.309Z,59.00
2023-08-23T05:56:33.854Z,59.35
2023-08-23T05:59:00.404Z,58.13
2023-08-23T06:01:27.038Z,57.59
2023-08-23T06:03:53.741Z,56.71
2023-08-23T06:06:20.359Z,56.47
2023-08-23T06:08:46.935Z,55.46
2023-08-23T06:11:13.928Z,55.30
2023-08-23T06:13:43.886Z,55.27
2023-08-23T06:16:10.858Z,54.41
2023-08-23T06:18:37.490Z,54.34
2023-08-23T06:21:04.010Z,54.13
2023-08-23T06:23:30.573Z,53.88
2023-08-23T06:26:00.876Z,53.73
2023-08-23T06:28:27.559Z,53.25
2023-08-23T06:30:54.181Z,53.22
2023-08-23T06:33:20.857Z,52.49
2023-08-23T06:35:47.433Z,52.93
2023-08-23T06:38:16.933Z,52.83
2023-08-23T06:40:43.799Z,52.27
2023-08-23T06:43:18.335Z,52.34
2023-08-23T06:45:45.017Z,52.35
2023-08-23T06:48:11.827Z,52.07
2023-08-23T06:50:38.563Z,51.93
2023-08-23T06:53:06.454Z,51.84
2023-08-23T06:55:33.076Z,52.25
2023-08-23T06:57:59.733Z,51.35
2023-08-23T07:00:27.746Z,51.74
2023-08-23T07:02:54.419Z,52.55
2023-08-23T07:05:20.963Z,52.62
2023-08-23T07:07:48.480Z,53.88
2023-08-23T07:10:27.371Z,54.54
2023-08-23T07:12:54.960Z,54.52
2023-08-23T07:15:21.840Z,53.73
2023-08-23T07:17:50.265Z,54.00
2023-08-23T07:20:17.461Z,54.34
2023-08-23T07:22:44.159Z,54.80
2023-08-23T07:25:10.802Z,54.50
2023-08-23T07:27:38.139Z,53.93
2023-08-23T07:30:06.588Z,54.05
2023-08-23T07:32:33.680Z,54.03
2023-08-23T07:35:03.672Z,53.19
2023-08-23T07:37:30.263Z,53.04
2023-08-23T07:39:57.010Z,52.42
2023-08-23T07:42:25.247Z,52.64
2023-08-23T07:44:52.925Z,52.42
2023-08-23T07:47:19.740Z,52.30
2023-08-23T07:49:46.409Z,52.32
2023-08-23T07:52:14.161Z,50.72
2023-08-23T07:54:40.746Z,50.25
2023-08-23T07:57:07.371Z,49.51
2023-08-23T07:59:34.057Z,49.31
2023-08-23T08:02:01.316Z,49.85
2023-08-23T08:04:31.020Z,49.68
2023-08-23T08:06:57.778Z,50.14
2023-08-23T08:09:24.418Z,50.05
2023-08-23T08:11:50.965Z,49.96
2023-08-23T08:14:17.513Z,49.56
2023-08-23T08:16:44.158Z,49.38
2023-08-23T08:19:10.768Z,48.74
2023-08-23T08:21:38.024Z,48.64
2023-08-23T08:24:04.964Z,48.01
2023-08-23T08:26:31.607Z,48.02
2023-08-23T08:28:58.158Z,49.25
2023-08-23T08:31:24.745Z,48.68
2023-08-23T08:33:51.418Z,47.75
2023-08-23T08:36:18.044Z,47.41
2023-08-23T08:38:44.585Z,48.03
2023-08-23T08:41:13.551Z,47.61
2023-08-23T08:43:40.344Z,48.06
2023-08-23T08:46:07.793Z,47.53
2023-08-23T08:48:34.899Z,48.36
2023-08-23T08:51:04.101Z,48.36
2023-08-23T08:53:35.172Z,48.08
2023-08-23T08:56:02.211Z,47.75
2023-08-23T08:58:31.118Z,47.26
2023-08-23T09:01:01.853Z,47.13
2023-08-23T09:03:29.279Z,45.97
2023-08-23T09:05:56.377Z,46.29
2023-08-23T09:08:23.256Z,45.97
2023-08-23T09:10:49.923Z,46.08
2023-08-23T09:13:16.633Z,46.26
2023-08-23T09:15:43.335Z,44.24
2023-08-23T09:18:10.091Z,44.54
2023-08-23T09:20:37.294Z,43.68
2023-08-23T09:23:03.977Z,43.63
2023-08-23T09:25:30.573Z,43.66
2023-08-23T09:27:57.607Z,43.11
2023-08-23T09:30:24.808Z,44.30
2023-08-23T09:32:51.453Z,44.09
2023-08-23T09:35:19.247Z,43.11
2023-08-23T09:37:48.360Z,42.98
2023-08-23T09:40:25.189Z,42.73
2023-08-23T09:42:53.739Z,43.21
2023-08-23T09:45:24.370Z,42.95
2023-08-23T09:47:55.861Z,42.05
2023-08-23T09:50:24.402Z,41.53
2023-08-23T09:53:11.601Z,41.47
2023-08-23T09:55:40.269Z,42.27
2023-08-23T09:58:07.435Z,42.48
2023-08-23T10:00:34.842Z,41.37
2023-08-23T10:03:01.854Z,41.85
2023-08-23T10:05:29.400Z,40.72
2023-08-23T10:07:57.535Z,40.23
2023-08-23T10:10:25.142Z,39.97
2023-08-23T10:12:54.840Z,39.49
2023-08-23T10:15:28.126Z,39.59
2023-08-23T10:17:55.622Z,40.41
2023-08-23T10:20:23.859Z,39.35
2023-08-23T10:22:54.870Z,39.75
2023-08-23T10:25:22.890Z,39.61
2023-08-23T10:27:58.579Z,39.56
2023-08-23T10:30:29.792Z,40.31
2023-08-23T10:33:08.386Z,40.39
2023-08-23T10:35:36.292Z,40.02
2023-08-23T10:38:05.582Z,39.20
2023-08-23T10:40:33.658Z,39.55
2023-08-23T10:43:05.267Z,39.22
2023-08-23T10:45:49.671Z,38.53
2023-08-23T10:48:17.410Z,38.36
2023-08-23T10:50:44.101Z,39.75
2023-08-23T10:53:12.182Z,38.42
2023-08-23T10:55:38.981Z,38.52
2023-08-23T10:58:05.538Z,38.22
2023-08-23T11:00:32.266Z,38.30
2023-08-23T11:02:59.941Z,39.07
2023-08-23T11:05:27.956Z,38.03
2023-08-23T11:07:58.191Z,38.42
2023-08-23T11:10:26.464Z,38.53
2023-08-23T11:12:53.471Z,38.19
2023-08-23T11:15:21.755Z,37.78
2023-08-23T11:17:49.332Z,37.78
2023-08-23T11:20:17.266Z,38.19
2023-08-23T11:22:44.164Z,38.65
2023-08-23T11:25:10.906Z,38.86
2023-08-23T11:27:37.630Z,38.38
2023-08-23T11:30:05.206Z,37.64
2023-08-23T11:32:32.173Z,37.24
2023-08-23T11:34:58.837Z,38.08
2023-08-23T11:37:25.471Z,37.15
2023-08-23T11:39:59.495Z,37.20
2023-08-23T11:42:26.665Z,36.91
2023-08-23T11:44:57.197Z,36.35
2023-08-23T11:47:27.335Z,36.85
2023-08-23T11:49:54.084Z,37.41
2023-08-23T11:52:20.727Z,36.40
2023-08-23T11:54:47.365Z,36.41
2023-08-23T11:57:20.066Z,36.34
2023-08-23T11:59:47.771Z,37.27
2023-08-23T12:02:14.533Z,37.59
2023-08-23T12:04:43.294Z,36.86
2023-08-23T12:07:10.806Z,36.37
2023-08-23T12:09:37.706Z,36.73
2023-08-23T12:12:04.699Z,35.55
2023-08-23T12:14:31.308Z,35.92
2023-08-23T12:16:57.917Z,35.83
2023-08-23T12:19:31.766Z,35.95
2023-08-23T12:21:58.855Z,35.61
2023-08-23T12:24:25.443Z,35.41
2023-08-23T12:26:52.061Z,35.98
2023-08-23T12:29:18.614Z,35.46
2023-08-23T12:31:45.312Z,34.30
2023-08-23T12:34:11.897Z,34.44
2023-08-23T12:36:38.534Z,33.70
2023-08-23T12:39:05.880Z,34.48
2023-08-23T12:41:32.752Z,34.46
2023-08-23T12:44:01.512Z,34.55
2023-08-23T12:46:30.744Z,33.87
2023-08-23T12:48:57.378Z,34.62
2023-08-23T12:51:25.875Z,34.03
2023-08-23T12:53:52.456Z,34.73
2023-08-23T12:56:19.062Z,33.32
2023-08-23T12:58:45.654Z,33.23
2023-08-23T13:01:12.369Z,32.58
2023-08-23T13:03:39.226Z,32.87
2023-08-23T13:06:05.882Z,32.75
2023-08-23T13:08:32.481Z,33.02
2023-08-23T13:10:59.099Z,32.56
2023-08-23T13:13:27.987Z,31.91
2023-08-23T13:15:54.584Z,32.23
2023-08-23T13:18:21.292Z,32.16
2023-08-23T13:20:47.868Z,31.43
2023-08-23T13:23:14.486Z,32.01
2023-08-23T13:25:41.134Z,31.97
2023-08-23T13:28:07.851Z,31.96
2023-08-23T13:30:34.441Z,34.02
2023-08-23T13:33:01.459Z,33.41
2023-08-23T13:35:28.273Z,31.80
2023-08-23T13:37:54.806Z,31.88
2023-08-23T13:40:21.346Z,31.60
2023-08-23T13:42:51.026Z,31.85
2023-08-23T13:45:22.252Z,31.16
2023-08-23T13:47:50.078Z,31.44
2023-08-23T13:50:18.802Z,31.54
2023-08-23T13:52:45.402Z,31.53
2023-08-23T13:55:12.111Z,31.68
2023-08-23T13:57:38.712Z,31.65
2023-08-23T14:00:08.373Z,31.17
2023-08-23T14:02:35.629Z,31.24
2023-08-23T14:05:02.215Z,30.15
2023-08-23T14:07:29.168Z,29.82
2023-08-23T14:09:55.799Z,29.30
2023-08-23T14:12:22.309Z,29.06
2023-08-23T14:14:48.948Z,27.99
2023-08-23T14:17:15.501Z,27.30
2023-08-23T14:19:48.983Z,27.10
2023-08-23T14:22:16.411Z,26.13
2023-08-23T14:24:43.869Z,25.48
2023-08-23T14:27:11.654Z,26.13
2023-08-23T14:29:38.430Z,26.53
2023-08-23T14:32:05.077Z,25.09
2023-08-23T14:34:31.695Z,24.17
2023-08-23T14:36:58.289Z,24.69
2023-08-23T14:39:25.095Z,23.43
2023-08-23T14:41:51.781Z,24.34
2023-08-23T14:44:18.365Z,23.71
2023-08-23T14:46:44.934Z,22.67
2023-08-23T14:49:11.650Z,22.17
2023-08-23T14:51:38.279Z,22.35
2023-08-23T14:54:04.970Z,22.83
2023-08-23T14:56:31.582Z,23.06
2023-08-23T14:58:58.610Z,22.63
2023-08-23T15:01:25.443Z,21.77
2023-08-23T15:03:52.088Z,22.39
2023-08-23T15:06:18.664Z,21.73
2023-08-23T15:08:45.427Z,22.35
2023-08-23T15:11:12.095Z,21.98
2023-08-23T15:13:39.738Z,22.58
2023-08-23T15:16:06.339Z,22.21
2023-08-23T15:18:33.075Z,23.30
2023-08-23T15:20:59.639Z,22.83
2023-08-23T15:23:29.111Z,22.47
2023-08-23T15:25:55.731Z,21.94
2023-08-23T15:28:23.106Z,22.20
2023-08-23T15:30:49.716Z,21.56
2023-08-23T15:33:16.427Z,22.01
2023-08-23T15:35:43.124Z,21.41
2023-08-23T15:38:10.164Z,21.87
2023-08-23T15:40:37.491Z,22.63
2023-08-23T15:43:04.248Z,22.14
2023-08-23T15:45:30.799Z,21.73
2023-08-23T15:47:58.961Z,22.10
2023-08-23T15:50:25.991Z,21.60
2023-08-23T15:52:52.548Z,21.71
2023-08-23T15:55:20.146Z,21.92
2023-08-23T15:57:47.133Z,23.06
2023-08-23T16:00:14.541Z,23.57
2023-08-23T16:02:41.272Z,22.62
2023-08-23T16:05:08.182Z,22.97
2023-08-23T16:07:34.849Z,23.25
2023-08-23T16:10:02.212Z,22.96
2023-08-23T16:12:28.809Z,23.69
2023-08-23T16:14:55.384Z,23.57
2023-08-23T16:17:21.929Z,24.76
2023-08-23T16:19:48.545Z,25.20
2023-08-23T16:22:15.146Z,24.70
2023-08-23T16:24:43.087Z,25.36
2023-08-23T16:27:09.727Z,24.44
2023-08-23T16:29:36.269Z,24.32
2023-08-23T16:32:02.836Z,24.23
2023-08-23T16:34:29.855Z,26.18
2023-08-23T16:36:56.623Z,25.39
2023-08-23T16:39:23.234Z,25.78
2023-08-23T16:41:51.917Z,25.98
2023-08-23T16:44:20.269Z,25.91
2023-08-23T16:46:46.814Z,27.68
2023-08-23T16:49:13.563Z,28.50
2023-08-23T16:51:40.387Z,29.10
2023-08-23T16:54:07.314Z,28.53
2023-08-23T16:56:35.746Z,31.30
2023-08-23T16:59:02.467Z,31.32
2023-08-23T17:01:29.113Z,31.68
2023-08-23T17:03:55.816Z,31.72
2023-08-23T17:06:22.409Z,33.24
2023-08-23T17:08:48.934Z,32.86
2023-08-23T17:11:16.693Z,35.35
2023-08-23T17:13:43.520Z,36.60
2023-08-23T17:16:10.186Z,38.01
2023-08-23T17:18:36.877Z,37.75
2023-08-23T17:21:03.684Z,38.26
2023-08-23T17:23:30.776Z,39.66
2023-08-23T17:25:57.876Z,39.88
2023-08-23T17:28:24.548Z,40.48
2023-08-23T17:30:52.446Z,41.23
2023-08-23T17:33:21.313Z,41.96
2023-08-23T17:35:48.210Z,42.29
2023-08-23T17:38:14.809Z,42.25
2023-08-23T17:40:41.334Z,42.09
2023-08-23T17:43:08.045Z,42.17
2023-08-23T17:45:34.767Z,42.51
2023-08-23T17:48:01.423Z,42.96
2023-08-23T17:50:28.051Z,43.17
2023-08-23T17:52:56.441Z,43.43
2023-08-23T17:55:23.402Z,43.85
2023-08-23T17:57:49.952Z,43.71
2023-08-23T18:00:17.343Z,43.40
2023-08-23T18:02:44.325Z,43.98
2023-08-23T18:05:11.084Z,44.60
2023-08-23T18:07:38.826Z,44.64
2023-08-23T18:10:08.408Z,45.27
2023-08-23T18:12:35.323Z,45.11
2023-08-23T18:15:03.369Z,45.40
2023-08-23T18:17:29.978Z,45.31
2023-08-23T18:19:58.525Z,45.51
2023-08-23T18:22:25.158Z,45.61
2023-08-23T18:24:51.790Z,45.76
2023-08-23T18:27:18.336Z,46.05
2023-08-23T18:29:44.896Z,46.80
2023-08-23T18:32:11.479Z,47.22
2023-08-23T18:34:38.127Z,46.69
2023-08-23T18:37:04.927Z,47.22
2023-08-23T18:39:31.493Z,47.40
2023-08-23T18:41:58.187Z,47.72
2023-08-23T18:44:24.735Z,48.05
2023-08-23T18:46:51.304Z,48.16
2023-08-23T18:49:17.829Z,49.01
2023-08-23T18:51:44.420Z,49.07
2023-08-23T18:54:12.219Z,49.97
2023-08-23T18:56:39.024Z,49.83
2023-08-23T18:59:05.624Z,49.88
2023-08-23T19:01:32.491Z,49.79
2023-08-23T19:03:59.315Z,50.72
2023-08-23T19:06:27.067Z,50.59
2023-08-23T19:08:53.601Z,50.88
2023-08-23T19:11:20.168Z,51.05
2023-08-23T19:13:46.780Z,51.26
2023-08-23T19:16:13.470Z,51.92
2023-08-23T19:18:40.072Z,52.19
2023-08-23T19:21:06.674Z,52.33
2023-08-23T19:23:33.196Z,52.53
2023-08-23T19:25:59.996Z,52.79
2023-08-23T19:28:26.577Z,53.01
2023-08-23T19:30:53.233Z,53.56
2023-08-23T19:33:19.830Z,53.19
2023-08-23T19:35:47.349Z,53.32
2023-08-23T19:38:14.069Z,53.70
2023-08-23T19:40:40.900Z,53.58
2023-08-23T19:43:07.784Z,53.96
2023-08-23T19:45:34.607Z,53.74
2023-08-23T19:48:13.644Z,53.85
2023-08-23T19:50:49.680Z,54.57
2023-08-23T19:53:18.166Z,54.18
2023-08-23T19:55:44.812Z,54.64
2023-08-23T19:58:11.517Z,54.69
2023-08-23T20:00:38.165Z,54.85
2023-08-23T20:03:05.155Z,55.19
2023-08-23T20:05:31.834Z,55.23
2023-08-23T20:08:01.371Z,55.21
2023-08-23T20:10:29.163Z,55.59
2023-08-23T20:12:55.822Z,55.92
2023-08-23T20:15:22.490Z,56.13
2023-08-23T20:17:49.385Z,55.99
2023-08-23T20:20:16.263Z,55.97
2023-08-23T20:22:42.851Z,56.31
2023-08-23T20:25:09.736Z,56.61
2023-08-23T20:27:36.326Z,56.27
2023-08-23T20:30:03.826Z,57.04
2023-08-23T20:32:30.547Z,56.99
2023-08-23T20:34:57.197Z,57.25
2023-08-23T20:37:23.845Z,57.54
2023-08-23T20:39:50.422Z,58.15
2023-08-23T20:42:17.256Z,58.55
2023-08-23T20:44:43.831Z,58.46
2023-08-23T20:47:10.479Z,58.58
2023-08-23T20:49:37.101Z,58.45
2023-08-23T20:52:04.672Z,58.57
2023-08-23T20:54:32.008Z,58.67
2023-08-23T20:56:58.658Z,58.84
2023-08-23T20:59:25.253Z,59.08
2023-08-23T21:01:52.021Z,59.15
2023-08-23T21:04:18.700Z,59.46
2023-08-23T21:06:45.400Z,59.34
2023-08-23T21:09:12.002Z,59.61
2023-08-23T21:11:38.684Z,59.81
2023-08-23T21:14:06.767Z,59.78
2023-08-23T21:16:33.645Z,59.42
2023-08-23T21:19:01.635Z,59.74
2023-08-23T21:21:29.028Z,59.92
2023-08-23T21:23:55.712Z,59.90
2023-08-23T21:26:23.115Z,59.95
2023-08-23T21:28:50.139Z,59.66
2023-08-23T21:31:16.854Z,59.70
2023-08-23T21:33:43.558Z,59.03
2023-08-23T21:36:10.181Z,59.59
2023-08-23T21:38:36.806Z,59.02
2023-08-23T21:41:03.612Z,59.21
2023-08-23T21:43:30.544Z,59.54
2023-08-23T21:45:58.280Z,59.17
2023-08-23T21:48:25.777Z,58.76
2023-08-23T21:50:52.988Z,58.97
2023-08-23T21:53:19.698Z,59.32
2023-08-23T21:55:56.933Z,59.66
2023-08-23T21:58:24.288Z,59.63
2023-08-23T22:00:54.728Z,59.49
2023-08-23T22:03:35.527Z,59.38
2023-08-23T22:06:07.478Z,59.27
2023-08-23T22:08:35.618Z,59.63
2023-08-23T22:11:03.591Z,60.57
2023-08-23T22:13:32.363Z,60.69
2023-08-23T22:15:59.165Z,60.39
2023-08-23T22:18:27.060Z,60.43
2023-08-23T22:20:54.434Z,60.52
2023-08-23T22:23:22.781Z,60.44
2023-08-23T22:25:50.139Z,60.79
2023-08-23T22:28:17.052Z,61.04
2023-08-23T22:30:43.793Z,61.05
2023-08-23T22:33:10.644Z,60.97
2023-08-23T22:35:39.059Z,61.32
2023-08-23T22:38:06.784Z,61.65
2023-08-23T22:40:37.338Z,61.93
2023-08-23T22:43:04.389Z,62.21
2023-08-23T22:45:32.215Z,62.44
2023-08-23T22:48:01.126Z,62.65
2023-08-23T22:50:28.318Z,62.73
2023-08-23T22:52:55.069Z,62.51
2023-08-23T22:55:21.802Z,62.58
2023-08-23T22:57:49.136Z,62.61
2023-08-23T23:00:16.180Z,62.92
2023-08-23T23:02:43.700Z,62.88
2023-08-23T23:05:10.504Z,63.02
2023-08-23T23:07:38.755Z,62.73
2023-08-23T23:10:07.381Z,63.11
2023-08-23T23:12:34.995Z,63.36
2023-08-23T23:15:04.551Z,63.06
2023-08-23T23:17:31.949Z,63.02
2023-08-23T23:19:58.957Z,63.57
2023-08-23T23:22:25.778Z,63.91
2023-08-23T23:24:52.347Z,63.78
2023-08-23T23:27:18.908Z,63.65
2023-08-23T23:29:45.564Z,63.25
2023-08-23T23:32:12.409Z,63.33
2023-08-23T23:34:39.072Z,62.92
2023-08-23T23:37:05.895Z,62.83
2023-08-23T23:39:32.540Z,62.67
2023-08-23T23:41:59.129Z,62.51
2023-08-23T23:44:25.748Z,62.36
2023-08-23T23:46:52.414Z,62.85
2023-08-23T23:49:19.050Z,62.35
2023-08-23T23:51:45.752Z,62.28
2023-08-23T23:54:12.316Z,62.23
2023-08-23T23:56:38.948Z,62.63
2023-08-23T23:59:06.358Z,61.78
